sensor_id;sensor_type;location;lat;lon;timestamp;temperature;humidity
8105;DHT22;4095;48.942;9.104;2024-02-23T00:01:32;9.90;99.90
8105;DHT22;4095;48.942;9.104;2024-02-23T00:03:57;9.80;99.90
8105;DHT22;4095;48.942;9.104;2024-02-23T00:06:23;9.90;99.90
8105;DHT22;4095;48.942;9.104;2024-02-23T00:08:53;9.90;99.90
8105;DHT22;4095;48.942;9.104;2024-02-23T00:11:20;9.80;99.90
8105;DHT22;4095;48.942;9.104;2024-02-23T00:13:46;9.90;99.90
8105;DHT22;4095;48.942;9.104;2024-02-23T00:16:11;9.90;99.90
8105;DHT22;4095;48.942;9.104;2024-02-23T00:18:38;9.90;99.90
8105;DHT22;4095;48.942;9.104;2024-02-23T00:21:04;9.80;99.90
8105;DHT22;4095;48.942;9.104;2024-02-23T00:23:29;9.80;99.90
8105;DHT22;4095;48.942;9.104;2024-02-23T00:25:55;9.80;99.90
8105;DHT22;4095;48.942;9.104;2024-02-23T00:28:21;9.80;99.90
8105;DHT22;4095;48.942;9.104;2024-02-23T00:30:47;9.80;99.90
8105;DHT22;4095;48.942;9.104;2024-02-23T00:33:12;9.80;99.90
8105;DHT22;4095;48.942;9.104;2024-02-23T00:35:38;9.80;99.90
8105;DHT22;4095;48.942;9.104;2024-02-23T00:38:04;9.80;99.90
8105;DHT22;4095;48.942;9.104;2024-02-23T00:40:29;9.70;99.90
8105;DHT22;4095;48.942;9.104;2024-02-23T00:42:55;9.70;99.90
8105;DHT22;4095;48.942;9.104;2024-02-23T00:45:21;9.80;99.90
8105;DHT22;4095;48.942;9.104;2024-02-23T00:47:47;9.70;99.90
8105;DHT22;4095;48.942;9.104;2024-02-23T00:50:14;9.80;99.90
8105;DHT22;4095;48.942;9.104;2024-02-23T00:52:40;9.80;99.90
8105;DHT22;4095;48.942;9.104;2024-02-23T00:55:06;9.70;99.90
8105;DHT22;4095;48.942;9.104;2024-02-23T00:57:34;9.70;99.90
8105;DHT22;4095;48.942;9.104;2024-02-23T01:00:01;9.70;99.90
8105;DHT22;4095;48.942;9.104;2024-02-23T01:02:28;9.60;99.90
8105;DHT22;4095;48.942;9.104;2024-02-23T01:04:54;9.60;99.90
8105;DHT22;4095;48.942;9.104;2024-02-23T01:07:22;9.60;99.90
8105;DHT22;4095;48.942;9.104;2024-02-23T01:09:48;9.60;99.90
8105;DHT22;4095;48.942;9.104;2024-02-23T01:12:13;9.60;99.90
8105;DHT22;4095;48.942;9.104;2024-02-23T01:14:39;9.60;99.90
8105;DHT22;4095;48.942;9.104;2024-02-23T01:17:04;9.60;99.90
8105;DHT22;4095;48.942;9.104;2024-02-23T01:19:30;9.60;99.90
8105;DHT22;4095;48.942;9.104;2024-02-23T01:21:56;9.60;99.90
8105;DHT22;4095;48.942;9.104;2024-02-23T01:24:30;9.60;99.90
8105;DHT22;4095;48.942;9.104;2024-02-23T01:26:56;9.60;99.90
8105;DHT22;4095;48.942;9.104;2024-02-23T01:29:23;9.60;99.90
8105;DHT22;4095;48.942;9.104;2024-02-23T01:31:49;9.70;99.90
8105;DHT22;4095;48.942;9.104;2024-02-23T01:34:15;9.60;99.90
8105;DHT22;4095;48.942;9.104;2024-02-23T01:36:40;9.60;99.90
8105;DHT22;4095;48.942;9.104;2024-02-23T01:39:06;9.60;99.90
8105;DHT22;4095;48.942;9.104;2024-02-23T01:41:33;9.60;99.90
8105;DHT22;4095;48.942;9.104;2024-02-23T01:43:58;9.70;99.90
8105;DHT22;4095;48.942;9.104;2024-02-23T01:46:24;9.60;99.90
8105;DHT22;4095;48.942;9.104;2024-02-23T01:48:50;9.70;99.90
8105;DHT22;4095;48.942;9.104;2024-02-23T01:51:16;9.70;99.90
8105;DHT22;4095;48.942;9.104;2024-02-23T01:53:42;9.70;99.90
8105;DHT22;4095;48.942;9.104;2024-02-23T01:56:09;9.60;99.90
8105;DHT22;4095;48.942;9.104;2024-02-23T01:58:37;9.60;99.90
8105;DHT22;4095;48.942;9.104;2024-02-23T02:01:02;9.60;99.90
8105;DHT22;4095;48.942;9.104;2024-02-23T02:03:28;9.60;99.90
8105;DHT22;4095;48.942;9.104;2024-02-23T02:05:55;9.60;99.90
8105;DHT22;4095;48.942;9.104;2024-02-23T02:08:25;9.60;99.90
8105;DHT22;4095;48.942;9.104;2024-02-23T02:10:51;9.60;99.90
8105;DHT22;4095;48.942;9.104;2024-02-23T02:13:16;9.60;99.90
8105;DHT22;4095;48.942;9.104;2024-02-23T02:15:42;9.60;99.90
8105;DHT22;4095;48.942;9.104;2024-02-23T02:18:09;9.50;99.90
8105;DHT22;4095;48.942;9.104;2024-02-23T02:20:36;9.50;99.90
8105;DHT22;4095;48.942;9.104;2024-02-23T02:23:02;9.50;99.90
8105;DHT22;4095;48.942;9.104;2024-02-23T02:25:28;9.40;99.90
8105;DHT22;4095;48.942;9.104;2024-02-23T02:27:54;9.30;99.90
8105;DHT22;4095;48.942;9.104;2024-02-23T02:30:19;9.10;99.90
8105;DHT22;4095;48.942;9.104;2024-02-23T02:32:45;9.10;99.90
8105;DHT22;4095;48.942;9.104;2024-02-23T02:35:11;9.10;99.90
8105;DHT22;4095;48.942;9.104;2024-02-23T02:37:38;9.00;99.90
8105;DHT22;4095;48.942;9.104;2024-02-23T02:40:04;9.00;99.90
8105;DHT22;4095;48.942;9.104;2024-02-23T02:42:30;9.00;99.90
8105;DHT22;4095;48.942;9.104;2024-02-23T02:44:56;9.00;99.90
8105;DHT22;4095;48.942;9.104;2024-02-23T02:47:22;9.00;99.90
8105;DHT22;4095;48.942;9.104;2024-02-23T02:49:48;9.00;99.90
8105;DHT22;4095;48.942;9.104;2024-02-23T02:52:14;9.00;99.90
8105;DHT22;4095;48.942;9.104;2024-02-23T02:54:39;9.00;99.90
8105;DHT22;4095;48.942;9.104;2024-02-23T02:57:05;9.00;99.90
8105;DHT22;4095;48.942;9.104;2024-02-23T02:59:34;9.00;99.90
8105;DHT22;4095;48.942;9.104;2024-02-23T03:02:00;9.00;99.90
8105;DHT22;4095;48.942;9.104;2024-02-23T03:04:26;9.00;99.90
8105;DHT22;4095;48.942;9.104;2024-02-23T03:06:51;9.00;99.90
8105;DHT22;4095;48.942;9.104;2024-02-23T03:09:17;9.00;99.90
8105;DHT22;4095;48.942;9.104;2024-02-23T03:11:42;9.00;99.90
8105;DHT22;4095;48.942;9.104;2024-02-23T03:14:08;9.00;99.90
8105;DHT22;4095;48.942;9.104;2024-02-23T03:16:35;9.10;99.90
8105;DHT22;4095;48.942;9.104;2024-02-23T03:19:02;9.10;99.90
8105;DHT22;4095;48.942;9.104;2024-02-23T03:21:28;9.10;99.90
8105;DHT22;4095;48.942;9.104;2024-02-23T03:23:54;9.20;99.90
8105;DHT22;4095;48.942;9.104;2024-02-23T03:26:19;9.10;99.90
8105;DHT22;4095;48.942;9.104;2024-02-23T03:28:45;9.10;99.90
8105;DHT22;4095;48.942;9.104;2024-02-23T03:31:11;9.00;99.90
8105;DHT22;4095;48.942;9.104;2024-02-23T03:33:37;9.00;99.90
8105;DHT22;4095;48.942;9.104;2024-02-23T03:36:03;9.00;99.90
8105;DHT22;4095;48.942;9.104;2024-02-23T03:38:29;9.00;99.90
8105;DHT22;4095;48.942;9.104;2024-02-23T03:40:55;9.00;99.90
8105;DHT22;4095;48.942;9.104;2024-02-23T03:43:21;9.00;99.90
8105;DHT22;4095;48.942;9.104;2024-02-23T03:45:47;9.00;99.90
8105;DHT22;4095;48.942;9.104;2024-02-23T03:48:13;9.00;99.90
8105;DHT22;4095;48.942;9.104;2024-02-23T03:50:38;9.00;99.90
8105;DHT22;4095;48.942;9.104;2024-02-23T03:53:04;8.90;99.90
8105;DHT22;4095;48.942;9.104;2024-02-23T03:55:30;8.90;99.90
8105;DHT22;4095;48.942;9.104;2024-02-23T03:57:55;8.90;99.90
8105;DHT22;4095;48.942;9.104;2024-02-23T04:00:21;9.00;99.90
8105;DHT22;4095;48.942;9.104;2024-02-23T04:02:49;9.00;99.90
8105;DHT22;4095;48.942;9.104;2024-02-23T04:05:14;9.10;99.90
8105;DHT22;4095;48.942;9.104;2024-02-23T04:07:40;9.10;99.90
8105;DHT22;4095;48.942;9.104;2024-02-23T04:10:06;9.10;99.90
8105;DHT22;4095;48.942;9.104;2024-02-23T04:12:32;9.00;99.90
8105;DHT22;4095;48.942;9.104;2024-02-23T04:14:58;9.00;99.90
8105;DHT22;4095;48.942;9.104;2024-02-23T04:17:23;9.00;99.90
8105;DHT22;4095;48.942;9.104;2024-02-23T04:19:49;9.00;99.90
8105;DHT22;4095;48.942;9.104;2024-02-23T04:22:14;9.00;99.90
8105;DHT22;4095;48.942;9.104;2024-02-23T04:24:40;9.00;99.90
8105;DHT22;4095;48.942;9.104;2024-02-23T04:27:07;9.00;99.90
8105;DHT22;4095;48.942;9.104;2024-02-23T04:29:33;9.00;99.90
8105;DHT22;4095;48.942;9.104;2024-02-23T04:32:02;9.00;99.90
8105;DHT22;4095;48.942;9.104;2024-02-23T04:34:28;9.00;99.90
8105;DHT22;4095;48.942;9.104;2024-02-23T04:36:54;9.00;99.90
8105;DHT22;4095;48.942;9.104;2024-02-23T04:39:20;9.00;99.90
8105;DHT22;4095;48.942;9.104;2024-02-23T04:41:46;9.00;99.90
8105;DHT22;4095;48.942;9.104;2024-02-23T04:44:11;9.10;99.90
8105;DHT22;4095;48.942;9.104;2024-02-23T04:46:37;9.10;99.90
8105;DHT22;4095;48.942;9.104;2024-02-23T04:49:03;9.10;99.90
8105;DHT22;4095;48.942;9.104;2024-02-23T04:51:28;9.10;99.90
8105;DHT22;4095;48.942;9.104;2024-02-23T04:53:54;9.00;99.90
8105;DHT22;4095;48.942;9.104;2024-02-23T04:56:20;9.10;99.90
8105;DHT22;4095;48.942;9.104;2024-02-23T04:58:46;9.10;99.90
8105;DHT22;4095;48.942;9.104;2024-02-23T05:01:12;9.10;99.90
8105;DHT22;4095;48.942;9.104;2024-02-23T05:03:38;9.10;99.90
8105;DHT22;4095;48.942;9.104;2024-02-23T05:06:04;9.00;99.90
8105;DHT22;4095;48.942;9.104;2024-02-23T05:08:30;9.00;99.90
8105;DHT22;4095;48.942;9.104;2024-02-23T05:10:59;9.00;99.90
8105;DHT22;4095;48.942;9.104;2024-02-23T05:13:25;8.90;99.90
8105;DHT22;4095;48.942;9.104;2024-02-23T05:15:51;9.00;99.90
8105;DHT22;4095;48.942;9.104;2024-02-23T05:18:16;9.00;99.90
8105;DHT22;4095;48.942;9.104;2024-02-23T05:20:42;9.00;99.90
8105;DHT22;4095;48.942;9.104;2024-02-23T05:23:08;9.00;99.90
8105;DHT22;4095;48.942;9.104;2024-02-23T05:25:34;9.00;99.90
8105;DHT22;4095;48.942;9.104;2024-02-23T05:28:00;9.00;99.90
8105;DHT22;4095;48.942;9.104;2024-02-23T05:30:25;9.00;99.90
8105;DHT22;4095;48.942;9.104;2024-02-23T05:32:52;9.00;99.90
8105;DHT22;4095;48.942;9.104;2024-02-23T05:35:18;9.00;99.90
8105;DHT22;4095;48.942;9.104;2024-02-23T05:37:44;9.00;99.90
8105;DHT22;4095;48.942;9.104;2024-02-23T05:40:10;9.10;99.90
8105;DHT22;4095;48.942;9.104;2024-02-23T05:42:39;9.10;99.90
8105;DHT22;4095;48.942;9.104;2024-02-23T05:45:06;9.10;99.90
8105;DHT22;4095;48.942;9.104;2024-02-23T05:47:40;9.10;99.90
8105;DHT22;4095;48.942;9.104;2024-02-23T05:50:08;9.10;99.90
8105;DHT22;4095;48.942;9.104;2024-02-23T05:52:34;9.10;99.90
8105;DHT22;4095;48.942;9.104;2024-02-23T05:55:01;9.20;99.90
8105;DHT22;4095;48.942;9.104;2024-02-23T05:57:27;9.30;99.90
8105;DHT22;4095;48.942;9.104;2024-02-23T05:59:53;9.30;99.90
8105;DHT22;4095;48.942;9.104;2024-02-23T06:02:19;9.20;99.90
8105;DHT22;4095;48.942;9.104;2024-02-23T06:04:44;9.20;99.90
8105;DHT22;4095;48.942;9.104;2024-02-23T06:07:10;9.10;99.90
8105;DHT22;4095;48.942;9.104;2024-02-23T06:09:36;9.00;99.90
8105;DHT22;4095;48.942;9.104;2024-02-23T06:12:02;9.00;99.90
8105;DHT22;4095;48.942;9.104;2024-02-23T06:14:28;8.90;99.90
8105;DHT22;4095;48.942;9.104;2024-02-23T06:16:54;8.80;99.90
8105;DHT22;4095;48.942;9.104;2024-02-23T06:19:19;8.70;99.90
8105;DHT22;4095;48.942;9.104;2024-02-23T06:21:49;8.80;99.90
8105;DHT22;4095;48.942;9.104;2024-02-23T06:24:15;8.80;99.90
8105;DHT22;4095;48.942;9.104;2024-02-23T06:26:41;8.70;99.90
8105;DHT22;4095;48.942;9.104;2024-02-23T06:29:07;8.60;99.90
8105;DHT22;4095;48.942;9.104;2024-02-23T06:31:36;8.50;99.90
8105;DHT22;4095;48.942;9.104;2024-02-23T06:34:02;8.70;99.90
8105;DHT22;4095;48.942;9.104;2024-02-23T06:36:28;8.70;99.90
8105;DHT22;4095;48.942;9.104;2024-02-23T06:38:53;8.50;99.90
8105;DHT22;4095;48.942;9.104;2024-02-23T06:41:19;8.60;99.90
8105;DHT22;4095;48.942;9.104;2024-02-23T06:43:44;8.60;99.90
8105;DHT22;4095;48.942;9.104;2024-02-23T06:46:10;8.60;99.90
8105;DHT22;4095;48.942;9.104;2024-02-23T06:48:36;8.60;99.90
8105;DHT22;4095;48.942;9.104;2024-02-23T06:51:03;8.60;99.90
8105;DHT22;4095;48.942;9.104;2024-02-23T06:53:29;8.70;99.90
8105;DHT22;4095;48.942;9.104;2024-02-23T06:55:55;8.70;99.90
8105;DHT22;4095;48.942;9.104;2024-02-23T06:58:21;8.70;99.90
8105;DHT22;4095;48.942;9.104;2024-02-23T07:00:46;8.70;99.90
8105;DHT22;4095;48.942;9.104;2024-02-23T07:03:13;8.60;99.90
8105;DHT22;4095;48.942;9.104;2024-02-23T07:05:40;8.60;99.90
8105;DHT22;4095;48.942;9.104;2024-02-23T07:08:07;8.40;99.90
8105;DHT22;4095;48.942;9.104;2024-02-23T07:10:33;8.40;99.90
8105;DHT22;4095;48.942;9.104;2024-02-23T07:12:59;8.30;99.90
8105;DHT22;4095;48.942;9.104;2024-02-23T07:15:25;8.30;99.90
8105;DHT22;4095;48.942;9.104;2024-02-23T07:17:52;8.30;99.90
8105;DHT22;4095;48.942;9.104;2024-02-23T07:20:17;8.40;99.90
8105;DHT22;4095;48.942;9.104;2024-02-23T07:22:46;8.40;99.90
8105;DHT22;4095;48.942;9.104;2024-02-23T07:25:19;8.50;99.90
8105;DHT22;4095;48.942;9.104;2024-02-23T07:27:48;8.60;99.90
8105;DHT22;4095;48.942;9.104;2024-02-23T07:30:16;8.70;99.90
8105;DHT22;4095;48.942;9.104;2024-02-23T07:32:43;8.80;99.90
8105;DHT22;4095;48.942;9.104;2024-02-23T07:35:09;8.80;99.90
8105;DHT22;4095;48.942;9.104;2024-02-23T07:37:36;8.80;99.90
8105;DHT22;4095;48.942;9.104;2024-02-23T07:40:01;8.90;99.90
8105;DHT22;4095;48.942;9.104;2024-02-23T07:42:29;8.80;99.90
8105;DHT22;4095;48.942;9.104;2024-02-23T07:44:55;8.70;99.90
8105;DHT22;4095;48.942;9.104;2024-02-23T07:47:21;8.70;99.90
8105;DHT22;4095;48.942;9.104;2024-02-23T07:49:47;8.70;99.90
8105;DHT22;4095;48.942;9.104;2024-02-23T07:52:12;8.70;99.90
8105;DHT22;4095;48.942;9.104;2024-02-23T07:54:38;8.80;99.90
8105;DHT22;4095;48.942;9.104;2024-02-23T07:57:04;8.70;99.90
8105;DHT22;4095;48.942;9.104;2024-02-23T07:59:32;8.80;99.90
8105;DHT22;4095;48.942;9.104;2024-02-23T08:01:58;8.80;99.90
8105;DHT22;4095;48.942;9.104;2024-02-23T08:04:24;8.80;99.90
8105;DHT22;4095;48.942;9.104;2024-02-23T08:06:49;8.80;99.90
8105;DHT22;4095;48.942;9.104;2024-02-23T08:09:16;8.90;99.90
8105;DHT22;4095;48.942;9.104;2024-02-23T08:11:43;8.90;99.90
8105;DHT22;4095;48.942;9.104;2024-02-23T08:14:08;8.90;99.90
8105;DHT22;4095;48.942;9.104;2024-02-23T08:16:34;8.90;99.90
8105;DHT22;4095;48.942;9.104;2024-02-23T08:19:00;8.90;99.90
8105;DHT22;4095;48.942;9.104;2024-02-23T08:21:25;8.90;99.90
8105;DHT22;4095;48.942;9.104;2024-02-23T08:23:52;8.90;99.90
8105;DHT22;4095;48.942;9.104;2024-02-23T08:26:17;8.90;99.90
8105;DHT22;4095;48.942;9.104;2024-02-23T08:28:43;8.90;99.90
8105;DHT22;4095;48.942;9.104;2024-02-23T08:31:09;9.00;99.90
8105;DHT22;4095;48.942;9.104;2024-02-23T08:33:34;9.00;99.90
8105;DHT22;4095;48.942;9.104;2024-02-23T08:36:00;9.10;99.90
8105;DHT22;4095;48.942;9.104;2024-02-23T08:38:25;9.10;99.90
8105;DHT22;4095;48.942;9.104;2024-02-23T08:40:51;9.10;99.90
8105;DHT22;4095;48.942;9.104;2024-02-23T08:43:16;9.20;99.90
8105;DHT22;4095;48.942;9.104;2024-02-23T08:45:42;9.20;99.90
8105;DHT22;4095;48.942;9.104;2024-02-23T08:48:08;9.20;99.90
8105;DHT22;4095;48.942;9.104;2024-02-23T08:50:34;9.20;99.90
8105;DHT22;4095;48.942;9.104;2024-02-23T08:52:59;9.30;99.90
8105;DHT22;4095;48.942;9.104;2024-02-23T08:55:25;9.20;99.90
8105;DHT22;4095;48.942;9.104;2024-02-23T08:57:51;9.30;99.90
8105;DHT22;4095;48.942;9.104;2024-02-23T09:00:17;9.40;99.90
8105;DHT22;4095;48.942;9.104;2024-02-23T09:02:42;9.50;99.90
8105;DHT22;4095;48.942;9.104;2024-02-23T09:05:08;9.50;99.90
8105;DHT22;4095;48.942;9.104;2024-02-23T09:07:35;9.60;99.90
8105;DHT22;4095;48.942;9.104;2024-02-23T09:10:01;9.60;99.90
8105;DHT22;4095;48.942;9.104;2024-02-23T09:12:27;9.70;99.90
8105;DHT22;4095;48.942;9.104;2024-02-23T09:14:52;9.70;99.90
8105;DHT22;4095;48.942;9.104;2024-02-23T09:17:18;9.70;99.90
8105;DHT22;4095;48.942;9.104;2024-02-23T09:19:45;9.60;99.90
8105;DHT22;4095;48.942;9.104;2024-02-23T09:22:11;9.60;99.90
8105;DHT22;4095;48.942;9.104;2024-02-23T09:24:40;9.70;99.90
8105;DHT22;4095;48.942;9.104;2024-02-23T09:27:06;9.60;99.90
8105;DHT22;4095;48.942;9.104;2024-02-23T09:29:32;9.60;99.90
8105;DHT22;4095;48.942;9.104;2024-02-23T09:31:58;9.50;99.90
8105;DHT22;4095;48.942;9.104;2024-02-23T09:34:24;9.60;99.90
8105;DHT22;4095;48.942;9.104;2024-02-23T09:36:50;9.70;99.90
8105;DHT22;4095;48.942;9.104;2024-02-23T09:39:16;9.80;99.90
8105;DHT22;4095;48.942;9.104;2024-02-23T09:41:42;9.90;99.90
8105;DHT22;4095;48.942;9.104;2024-02-23T09:44:08;10.00;99.90
8105;DHT22;4095;48.942;9.104;2024-02-23T09:46:36;10.20;99.90
8105;DHT22;4095;48.942;9.104;2024-02-23T09:49:02;10.50;99.90
8105;DHT22;4095;48.942;9.104;2024-02-23T09:51:29;10.80;99.90
8105;DHT22;4095;48.942;9.104;2024-02-23T09:53:55;10.80;99.90
8105;DHT22;4095;48.942;9.104;2024-02-23T09:56:24;11.10;99.90
8105;DHT22;4095;48.942;9.104;2024-02-23T09:58:53;11.20;99.90
8105;DHT22;4095;48.942;9.104;2024-02-23T10:01:28;11.20;99.80
8105;DHT22;4095;48.942;9.104;2024-02-23T10:03:57;11.20;99.50
8105;DHT22;4095;48.942;9.104;2024-02-23T10:06:24;11.20;99.30
8105;DHT22;4095;48.942;9.104;2024-02-23T10:08:50;11.10;99.60
8105;DHT22;4095;48.942;9.104;2024-02-23T10:11:18;11.00;99.50
8105;DHT22;4095;48.942;9.104;2024-02-23T10:13:44;10.90;99.50
8105;DHT22;4095;48.942;9.104;2024-02-23T10:16:10;10.70;99.10
8105;DHT22;4095;48.942;9.104;2024-02-23T10:18:38;10.60;99.30
8105;DHT22;4095;48.942;9.104;2024-02-23T10:21:05;10.60;99.20
8105;DHT22;4095;48.942;9.104;2024-02-23T10:23:30;10.60;99.50
8105;DHT22;4095;48.942;9.104;2024-02-23T10:25:56;10.60;99.30
8105;DHT22;4095;48.942;9.104;2024-02-23T10:28:22;10.70;99.90
8105;DHT22;4095;48.942;9.104;2024-02-23T10:30:48;11.10;99.40
8105;DHT22;4095;48.942;9.104;2024-02-23T10:33:14;11.20;98.90
8105;DHT22;4095;48.942;9.104;2024-02-23T10:35:41;11.10;99.20
8105;DHT22;4095;48.942;9.104;2024-02-23T10:38:08;11.00;99.60
8105;DHT22;4095;48.942;9.104;2024-02-23T10:40:37;11.00;99.20
8105;DHT22;4095;48.942;9.104;2024-02-23T10:43:11;11.00;99.40
8105;DHT22;4095;48.942;9.104;2024-02-23T10:45:38;11.20;99.60
8105;DHT22;4095;48.942;9.104;2024-02-23T10:48:08;11.50;99.40
8105;DHT22;4095;48.942;9.104;2024-02-23T10:50:35;11.80;98.50
8105;DHT22;4095;48.942;9.104;2024-02-23T10:53:01;11.80;98.00
8105;DHT22;4095;48.942;9.104;2024-02-23T10:55:31;11.60;97.70
8105;DHT22;4095;48.942;9.104;2024-02-23T10:57:58;11.40;98.10
8105;DHT22;4095;48.942;9.104;2024-02-23T11:00:24;11.60;98.30
8105;DHT22;4095;48.942;9.104;2024-02-23T11:02:52;11.70;98.30
8105;DHT22;4095;48.942;9.104;2024-02-23T11:05:20;11.90;97.80
8105;DHT22;4095;48.942;9.104;2024-02-23T11:07:49;11.90;97.80
8105;DHT22;4095;48.942;9.104;2024-02-23T11:10:16;11.70;97.90
8105;DHT22;4095;48.942;9.104;2024-02-23T11:12:42;11.60;97.80
8105;DHT22;4095;48.942;9.104;2024-02-23T11:15:08;11.60;98.20
8105;DHT22;4095;48.942;9.104;2024-02-23T11:17:36;11.50;98.20
8105;DHT22;4095;48.942;9.104;2024-02-23T11:20:04;11.80;98.70
8105;DHT22;4095;48.942;9.104;2024-02-23T11:22:31;12.40;97.70
8105;DHT22;4095;48.942;9.104;2024-02-23T11:25:03;12.90;97.00
8105;DHT22;4095;48.942;9.104;2024-02-23T11:27:32;13.70;96.70
8105;DHT22;4095;48.942;9.104;2024-02-23T11:30:06;14.00;96.10
8105;DHT22;4095;48.942;9.104;2024-02-23T11:32:47;13.90;96.20
8105;DHT22;4095;48.942;9.104;2024-02-23T11:35:15;13.70;96.00
8105;DHT22;4095;48.942;9.104;2024-02-23T11:37:55;13.50;95.90
8105;DHT22;4095;48.942;9.104;2024-02-23T11:40:31;13.10;96.00
8105;DHT22;4095;48.942;9.104;2024-02-23T11:42:58;12.70;96.10
8105;DHT22;4095;48.942;9.104;2024-02-23T11:45:25;12.40;96.80
8105;DHT22;4095;48.942;9.104;2024-02-23T11:47:53;12.20;97.10
8105;DHT22;4095;48.942;9.104;2024-02-23T11:50:18;12.00;97.10
8105;DHT22;4095;48.942;9.104;2024-02-23T11:52:46;11.90;97.00
8105;DHT22;4095;48.942;9.104;2024-02-23T11:55:12;11.80;97.30
8105;DHT22;4095;48.942;9.104;2024-02-23T11:57:39;11.60;97.50
8105;DHT22;4095;48.942;9.104;2024-02-23T12:00:05;11.60;97.70
8105;DHT22;4095;48.942;9.104;2024-02-23T12:02:37;11.60;97.60
8105;DHT22;4095;48.942;9.104;2024-02-23T12:05:03;11.60;97.70
8105;DHT22;4095;48.942;9.104;2024-02-23T12:07:29;11.70;98.00
8105;DHT22;4095;48.942;9.104;2024-02-23T12:09:56;11.80;97.80
8105;DHT22;4095;48.942;9.104;2024-02-23T12:12:23;11.80;97.20
8105;DHT22;4095;48.942;9.104;2024-02-23T12:14:49;11.70;97.40
8105;DHT22;4095;48.942;9.104;2024-02-23T12:17:14;11.70;97.30
8105;DHT22;4095;48.942;9.104;2024-02-23T12:19:40;11.50;97.30
8105;DHT22;4095;48.942;9.104;2024-02-23T12:22:06;11.50;97.40
8105;DHT22;4095;48.942;9.104;2024-02-23T12:24:31;11.70;98.00
8105;DHT22;4095;48.942;9.104;2024-02-23T12:26:57;11.80;96.90
8105;DHT22;4095;48.942;9.104;2024-02-23T12:29:24;11.80;97.50
8105;DHT22;4095;48.942;9.104;2024-02-23T12:31:49;11.70;97.20
8105;DHT22;4095;48.942;9.104;2024-02-23T12:34:15;11.60;97.60
8105;DHT22;4095;48.942;9.104;2024-02-23T12:36:41;11.70;97.70
8105;DHT22;4095;48.942;9.104;2024-02-23T12:39:07;11.70;97.50
8105;DHT22;4095;48.942;9.104;2024-02-23T12:41:33;11.60;97.30
8105;DHT22;4095;48.942;9.104;2024-02-23T12:43:59;11.40;97.60
8105;DHT22;4095;48.942;9.104;2024-02-23T12:46:24;11.30;97.60
8105;DHT22;4095;48.942;9.104;2024-02-23T12:48:50;11.30;97.80
8105;DHT22;4095;48.942;9.104;2024-02-23T12:51:16;11.20;98.00
8105;DHT22;4095;48.942;9.104;2024-02-23T12:53:43;11.30;97.90
8105;DHT22;4095;48.942;9.104;2024-02-23T12:56:13;11.30;97.50
8105;DHT22;4095;48.942;9.104;2024-02-23T12:58:42;11.30;97.50
8105;DHT22;4095;48.942;9.104;2024-02-23T13:01:08;11.40;97.80
8105;DHT22;4095;48.942;9.104;2024-02-23T13:03:35;11.50;98.10
8105;DHT22;4095;48.942;9.104;2024-02-23T13:06:01;11.50;97.70
8105;DHT22;4095;48.942;9.104;2024-02-23T13:08:28;11.40;97.50
8105;DHT22;4095;48.942;9.104;2024-02-23T13:10:54;11.50;97.60
8105;DHT22;4095;48.942;9.104;2024-02-23T13:13:21;11.50;97.60
8105;DHT22;4095;48.942;9.104;2024-02-23T13:15:48;11.50;97.50
8105;DHT22;4095;48.942;9.104;2024-02-23T13:18:14;11.60;97.80
8105;DHT22;4095;48.942;9.104;2024-02-23T13:20:40;11.70;98.00
8105;DHT22;4095;48.942;9.104;2024-02-23T13:23:10;11.70;98.00
8105;DHT22;4095;48.942;9.104;2024-02-23T13:25:37;11.70;97.70
8105;DHT22;4095;48.942;9.104;2024-02-23T13:28:03;11.80;98.10
8105;DHT22;4095;48.942;9.104;2024-02-23T13:30:30;11.90;98.20
8105;DHT22;4095;48.942;9.104;2024-02-23T13:32:56;12.00;97.20
8105;DHT22;4095;48.942;9.104;2024-02-23T13:35:22;12.00;97.30
8105;DHT22;4095;48.942;9.104;2024-02-23T13:37:47;12.00;97.60
8105;DHT22;4095;48.942;9.104;2024-02-23T13:40:13;11.90;97.30
8105;DHT22;4095;48.942;9.104;2024-02-23T13:42:39;11.90;97.50
8105;DHT22;4095;48.942;9.104;2024-02-23T13:45:08;11.90;97.80
8105;DHT22;4095;48.942;9.104;2024-02-23T13:47:35;11.90;97.50
8105;DHT22;4095;48.942;9.104;2024-02-23T13:50:04;11.90;97.00
8105;DHT22;4095;48.942;9.104;2024-02-23T13:52:30;11.90;97.00
8105;DHT22;4095;48.942;9.104;2024-02-23T13:54:55;11.90;97.60
8105;DHT22;4095;48.942;9.104;2024-02-23T13:57:21;12.00;97.40
8105;DHT22;4095;48.942;9.104;2024-02-23T13:59:47;12.00;97.40
8105;DHT22;4095;48.942;9.104;2024-02-23T14:02:13;12.00;97.00
8105;DHT22;4095;48.942;9.104;2024-02-23T14:04:38;11.90;97.20
8105;DHT22;4095;48.942;9.104;2024-02-23T14:07:04;11.90;97.40
8105;DHT22;4095;48.942;9.104;2024-02-23T14:09:30;11.90;97.00
8105;DHT22;4095;48.942;9.104;2024-02-23T14:11:56;12.00;97.40
8105;DHT22;4095;48.942;9.104;2024-02-23T14:14:22;12.00;97.50
8105;DHT22;4095;48.942;9.104;2024-02-23T14:16:49;12.10;97.90
8105;DHT22;4095;48.942;9.104;2024-02-23T14:19:14;12.20;97.80
8105;DHT22;4095;48.942;9.104;2024-02-23T14:21:40;12.20;97.10
8105;DHT22;4095;48.942;9.104;2024-02-23T14:24:06;12.20;97.10
8105;DHT22;4095;48.942;9.104;2024-02-23T14:26:31;12.20;97.40
8105;DHT22;4095;48.942;9.104;2024-02-23T14:28:58;12.20;97.40
8105;DHT22;4095;48.942;9.104;2024-02-23T14:31:24;12.20;97.40
8105;DHT22;4095;48.942;9.104;2024-02-23T14:33:50;12.10;97.50
8105;DHT22;4095;48.942;9.104;2024-02-23T14:36:19;12.00;97.60
8105;DHT22;4095;48.942;9.104;2024-02-23T14:38:45;12.00;97.70
8105;DHT22;4095;48.942;9.104;2024-02-23T14:41:10;12.00;97.90
8105;DHT22;4095;48.942;9.104;2024-02-23T14:43:36;12.00;97.30
8105;DHT22;4095;48.942;9.104;2024-02-23T14:46:03;11.90;97.00
8105;DHT22;4095;48.942;9.104;2024-02-23T14:48:29;12.00;97.60
8105;DHT22;4095;48.942;9.104;2024-02-23T14:50:54;12.00;98.00
8105;DHT22;4095;48.942;9.104;2024-02-23T14:53:20;12.00;97.80
8105;DHT22;4095;48.942;9.104;2024-02-23T14:55:45;12.00;97.90
8105;DHT22;4095;48.942;9.104;2024-02-23T14:58:12;12.00;97.50
8105;DHT22;4095;48.942;9.104;2024-02-23T15:00:37;12.00;97.30
8105;DHT22;4095;48.942;9.104;2024-02-23T15:03:03;12.00;97.60
8105;DHT22;4095;48.942;9.104;2024-02-23T15:05:29;12.00;98.00
8105;DHT22;4095;48.942;9.104;2024-02-23T15:07:55;12.00;97.90
8105;DHT22;4095;48.942;9.104;2024-02-23T15:10:21;11.90;97.80
8105;DHT22;4095;48.942;9.104;2024-02-23T15:12:46;12.00;98.30
8105;DHT22;4095;48.942;9.104;2024-02-23T15:15:12;12.00;97.90
8105;DHT22;4095;48.942;9.104;2024-02-23T15:17:39;11.90;98.00
8105;DHT22;4095;48.942;9.104;2024-02-23T15:20:08;12.00;97.60
8105;DHT22;4095;48.942;9.104;2024-02-23T15:22:34;11.90;97.80
8105;DHT22;4095;48.942;9.104;2024-02-23T15:24:59;11.80;97.40
8105;DHT22;4095;48.942;9.104;2024-02-23T15:27:25;11.70;97.80
8105;DHT22;4095;48.942;9.104;2024-02-23T15:29:50;11.70;97.80
8105;DHT22;4095;48.942;9.104;2024-02-23T15:32:17;11.70;98.00
8105;DHT22;4095;48.942;9.104;2024-02-23T15:34:42;11.80;98.10
8105;DHT22;4095;48.942;9.104;2024-02-23T15:37:08;11.90;98.00
8105;DHT22;4095;48.942;9.104;2024-02-23T15:39:34;11.90;98.50
8105;DHT22;4095;48.942;9.104;2024-02-23T15:41:59;11.90;98.00
8105;DHT22;4095;48.942;9.104;2024-02-23T15:44:25;11.80;98.10
8105;DHT22;4095;48.942;9.104;2024-02-23T15:46:50;11.80;98.30
8105;DHT22;4095;48.942;9.104;2024-02-23T15:49:16;11.80;98.30
8105;DHT22;4095;48.942;9.104;2024-02-23T15:51:44;11.70;98.40
8105;DHT22;4095;48.942;9.104;2024-02-23T15:54:10;11.60;98.30
8105;DHT22;4095;48.942;9.104;2024-02-23T15:56:36;11.50;98.40
8105;DHT22;4095;48.942;9.104;2024-02-23T15:59:03;11.50;98.30
8105;DHT22;4095;48.942;9.104;2024-02-23T16:01:33;11.50;99.00
8105;DHT22;4095;48.942;9.104;2024-02-23T16:03:59;11.60;99.20
8105;DHT22;4095;48.942;9.104;2024-02-23T16:06:24;11.70;99.20